Time;durP1;ratioP1;P1;durP2;ratioP2;P2;SDS_P1;SDS_P2;PMS_P1;PMS_P2;Temp;Humidity;BMP_temperature;BMP_pressure;BME280_temperature;BME280_humidity;BME280_pressure;Samples;Min_cycle;Max_cycle;Signal;HPM_P1;HPM_P2
2023/10/19 00:02:19;;;;;;;12.30;7.18;;;10.90;99.90;;;;;;5288566;28;20028;-75
2023/10/19 00:04:50;;;;;;;11.30;6.20;;;10.90;99.90;;;;;;5289167;28;20027;-74
2023/10/19 00:07:20;;;;;;;10.68;7.45;;;10.90;99.90;;;;;;5289292;28;20395;-73
2023/10/19 00:09:53;;;;;;;15.93;8.52;;;11.10;99.90;;;;;;5289197;28;20107;-74
2023/10/19 00:12:24;;;;;;;12.07;8.02;;;11.00;99.90;;;;;;5289240;28;20028;-73
2023/10/19 00:14:55;;;;;;;11.57;6.85;;;10.90;99.90;;;;;;5289189;28;20019;-74
2023/10/19 00:17:27;;;;;;;13.07;8.50;;;11.10;99.90;;;;;;5288783;28;20050;-74
2023/10/19 00:20:27;;;;;;;10.27;8.30;;;11.10;99.90;;;;;;5289206;28;20467;-73
2023/10/19 00:22:49;;;;;;;8.77;7.90;;;11.20;99.90;;;;;;5289049;28;20030;-73
2023/10/19 00:25:23;;;;;;;10.00;6.97;;;11.00;99.90;;;;;;5289028;28;20024;-77
2023/10/19 00:27:53;;;;;;;8.10;6.82;;;11.00;99.90;;;;;;5288789;28;20494;-75
2023/10/19 00:30:29;;;;;;;8.35;7.60;;;11.00;99.90;;;;;;5288944;28;20035;-76
2023/10/19 00:33:03;;;;;;;8.82;7.70;;;10.70;99.90;;;;;;5288992;28;20030;-73
2023/10/19 00:35:36;;;;;;;8.35;6.65;;;11.00;99.90;;;;;;5288924;28;20471;-73
2023/10/19 00:41:13;;;;;;;9.93;8.30;;;10.80;99.90;;;;;;5202515;28;20409;-77
2023/10/19 00:43:44;;;;;;;8.82;7.97;;;10.80;99.90;;;;;;5273946;28;20078;-78
2023/10/19 00:48:56;;;;;;;10.57;7.20;;;10.60;99.90;;;;;;5287383;28;20031;-75
2023/10/19 00:54:10;;;;;;;10.20;6.95;;;10.50;99.90;;;;;;5287380;28;20011;-76
2023/10/19 00:56:51;;;;;;;13.48;7.05;;;10.50;99.90;;;;;;5287347;28;20424;-77
2023/10/19 00:59:23;;;;;;;13.52;7.22;;;10.40;99.90;;;;;;5288227;28;20046;-74
2023/10/19 01:01:57;;;;;;;9.75;7.20;;;10.60;99.90;;;;;;5288408;28;20043;-76
2023/10/19 01:04:32;;;;;;;7.63;6.82;;;10.40;99.90;;;;;;5288323;28;20020;-76
2023/10/19 01:07:21;;;;;;;8.38;6.60;;;10.70;99.90;;;;;;5288494;28;20386;-78
2023/10/19 01:09:53;;;;;;;13.50;5.93;;;10.50;99.90;;;;;;5288646;28;20073;-77
2023/10/19 01:12:38;;;;;;;10.57;6.88;;;10.50;99.90;;;;;;5270258;28;20153;-77
2023/10/19 01:15:17;;;;;;;9.55;5.95;;;10.70;99.90;;;;;;5288206;28;20024;-75
2023/10/19 01:17:56;;;;;;;13.43;6.78;;;10.60;99.90;;;;;;5288355;28;20055;-77
2023/10/19 01:25:59;;;;;;;9.23;7.63;;;10.80;99.90;;;;;;5288208;28;20024;-77
2023/10/19 01:31:17;;;;;;;15.95;8.68;;;10.80;99.90;;;;;;5288492;28;20114;-75
2023/10/19 01:33:49;;;;;;;13.68;8.45;;;10.80;99.90;;;;;;5288091;28;20114;-77
2023/10/19 01:38:55;;;;;;;9.32;7.68;;;10.90;99.90;;;;;;5287144;28;20479;-76
2023/10/19 01:41:26;;;;;;;12.68;8.15;;;10.80;99.90;;;;;;5287000;28;20024;-77
2023/10/19 01:44:04;;;;;;;11.98;7.25;;;10.80;99.90;;;;;;5287013;28;20076;-77
2023/10/19 01:46:35;;;;;;;8.15;7.28;;;10.90;99.90;;;;;;5286880;28;20046;-76
2023/10/19 01:49:08;;;;;;;8.23;7.43;;;10.90;99.90;;;;;;5286998;28;20363;-76
2023/10/19 01:51:39;;;;;;;14.63;7.80;;;10.80;99.90;;;;;;5287269;28;20780;-77
2023/10/19 01:54:11;;;;;;;8.63;7.70;;;10.70;99.90;;;;;;5269753;28;20016;-75
2023/10/19 01:56:43;;;;;;;9.30;8.18;;;10.80;99.90;;;;;;5288141;28;20051;-75
2023/10/19 01:59:16;;;;;;;17.48;7.95;;;10.70;99.90;;;;;;5287876;28;20008;-75
2023/10/19 02:01:49;;;;;;;8.93;7.97;;;10.50;99.90;;;;;;5288062;28;20020;-76
2023/10/19 02:04:21;;;;;;;9.70;7.07;;;10.70;99.90;;;;;;5287807;28;20051;-76
2023/10/19 02:06:53;;;;;;;14.48;8.30;;;10.60;99.90;;;;;;5288026;28;20111;-76
2023/10/19 02:09:26;;;;;;;10.02;7.25;;;10.60;99.90;;;;;;5287672;28;20462;-78
2023/10/19 02:11:57;;;;;;;9.15;8.20;;;10.70;99.90;;;;;;5287923;28;20016;-78
2023/10/19 02:14:28;;;;;;;12.27;7.05;;;10.70;99.90;;;;;;5289890;28;20024;-77
2023/10/19 02:17:03;;;;;;;10.65;7.90;;;10.70;99.90;;;;;;5291350;28;20055;-77
2023/10/19 02:19:34;;;;;;;9.07;7.15;;;10.50;99.90;;;;;;5291577;28;20666;-77
2023/10/19 02:22:08;;;;;;;10.55;7.90;;;10.60;99.90;;;;;;5291777;28;20053;-76
2023/10/19 02:24:39;;;;;;;9.80;8.00;;;10.70;99.90;;;;;;5291552;28;20358;-75
2023/10/19 02:27:09;;;;;;;9.75;7.50;;;10.70;99.90;;;;;;5291215;28;20035;-77
2023/10/19 02:29:42;;;;;;;7.55;6.95;;;10.80;99.90;;;;;;5291098;28;20053;-78
2023/10/19 02:32:12;;;;;;;8.85;7.80;;;10.80;99.90;;;;;;5291161;28;20032;-76
2023/10/19 02:34:43;;;;;;;10.38;6.85;;;10.90;99.90;;;;;;5290116;28;20363;-76
2023/10/19 02:37:14;;;;;;;9.60;7.20;;;10.80;99.90;;;;;;5290218;28;20038;-76
2023/10/19 02:39:45;;;;;;;9.90;8.90;;;10.50;99.90;;;;;;5289904;28;20024;-76
2023/10/19 02:42:17;;;;;;;8.98;7.85;;;10.50;99.90;;;;;;5290150;28;20088;-78
2023/10/19 02:44:50;;;;;;;10.45;8.20;;;10.50;99.90;;;;;;5289984;28;20608;-76
2023/10/19 02:47:21;;;;;;;8.52;7.82;;;10.50;99.90;;;;;;5289667;28;20039;-76
2023/10/19 02:49:55;;;;;;;12.35;8.23;;;10.70;99.90;;;;;;5291004;28;20053;-79
2023/10/19 02:52:27;;;;;;;9.63;6.85;;;10.60;99.90;;;;;;5290859;28;20023;-76
2023/10/19 02:54:59;;;;;;;9.65;6.82;;;10.60;99.90;;;;;;5290861;28;20023;-75
2023/10/19 02:57:31;;;;;;;8.52;6.93;;;10.70;99.90;;;;;;5290835;28;20012;-75
2023/10/19 03:00:08;;;;;;;10.10;7.32;;;10.70;99.90;;;;;;5290786;28;20692;-76
2023/10/19 03:02:39;;;;;;;9.45;6.70;;;10.80;99.90;;;;;;5290965;28;20433;-75
2023/10/19 03:05:17;;;;;;;11.10;7.13;;;10.80;99.90;;;;;;5290664;28;20085;-76
2023/10/19 03:07:48;;;;;;;10.85;6.45;;;10.80;99.90;;;;;;5272307;28;20031;-74
2023/10/19 03:10:34;;;;;;;10.55;7.32;;;10.80;99.90;;;;;;5272245;28;20135;-74
2023/10/19 03:13:05;;;;;;;10.68;7.50;;;10.90;99.90;;;;;;5290242;28;20027;-79
2023/10/19 03:15:42;;;;;;;9.90;6.85;;;11.00;99.90;;;;;;5289897;28;20169;-75
2023/10/19 03:18:13;;;;;;;7.95;7.15;;;11.00;99.90;;;;;;5290001;28;20039;-77
2023/10/19 03:20:44;;;;;;;13.15;6.63;;;10.90;99.90;;;;;;5272063;28;20028;-75
2023/10/19 03:23:14;;;;;;;9.25;6.50;;;10.90;99.90;;;;;;5290312;28;20024;-75
2023/10/19 03:28:42;;;;;;;10.93;7.50;;;10.80;99.90;;;;;;5289912;28;20122;-75
2023/10/19 03:31:17;;;;;;;9.52;7.55;;;10.70;99.90;;;;;;5289071;28;20020;-75
2023/10/19 03:33:50;;;;;;;9.73;7.45;;;10.70;99.90;;;;;;5289320;28;20016;-75
2023/10/19 03:36:25;;;;;;;9.63;8.63;;;10.80;99.90;;;;;;5289006;28;20399;-75
2023/10/19 03:38:56;;;;;;;11.82;8.10;;;10.70;99.90;;;;;;5288853;28;20030;-74
2023/10/19 03:41:27;;;;;;;10.80;7.55;;;10.80;99.90;;;;;;5288915;28;20356;-74
2023/10/19 03:43:58;;;;;;;12.15;6.50;;;10.80;99.90;;;;;;5288843;28;20030;-76
2023/10/19 03:46:30;;;;;;;7.30;6.53;;;10.90;99.90;;;;;;5271354;28;20036;-74
2023/10/19 03:49:10;;;;;;;10.05;7.30;;;10.90;99.90;;;;;;5289754;28;20024;-74
2023/10/19 03:51:58;;;;;;;;;;;10.80;99.90;;;;;;5290221;28;20031;-74
2023/10/19 03:54:28;;;;;;;12.43;7.80;;;10.80;99.90;;;;;;5289388;28;19915;-74
2023/10/19 03:57:03;;;;;;;8.77;7.00;;;10.90;99.90;;;;;;5289408;28;20012;-74
2023/10/19 03:59:34;;;;;;;11.30;7.30;;;10.80;99.90;;;;;;5289625;28;20102;-75
2023/10/19 04:02:16;;;;;;;12.13;8.25;;;10.80;99.90;;;;;;5289434;28;20016;-74
2023/10/19 04:04:48;;;;;;;9.13;7.57;;;10.70;99.90;;;;;;5289509;28;20110;-74
2023/10/19 04:07:25;;;;;;;9.55;6.95;;;10.60;99.90;;;;;;5289305;28;20039;-75
2023/10/19 04:12:37;;;;;;;;;;;10.70;99.90;;;;;;5290112;28;20023;-74
2023/10/19 04:17:45;;;;;;;11.45;6.65;;;10.90;99.90;;;;;;5288943;28;20054;-74
2023/10/19 04:22:50;;;;;;;12.15;7.63;;;10.90;99.90;;;;;;5288444;28;20035;-76
2023/10/19 04:25:25;;;;;;;8.98;7.25;;;11.00;99.90;;;;;;5288486;28;20022;-76
2023/10/19 04:27:57;;;;;;;19.52;15.35;;;10.70;99.90;;;;;;5287891;28;20040;-76
2023/10/19 04:30:27;;;;;;;15.43;10.48;;;10.80;99.90;;;;;;5287846;28;20055;-74
2023/10/19 04:33:01;;;;;;;15.48;9.10;;;10.90;99.90;;;;;;5287929;28;20112;-76
2023/10/19 04:35:34;;;;;;;16.52;10.05;;;10.90;99.90;;;;;;5287834;28;20386;-75
2023/10/19 04:38:08;;;;;;;13.60;10.60;;;10.80;99.90;;;;;;5287337;28;20016;-73
2023/10/19 04:40:38;;;;;;;22.40;14.85;;;11.00;99.90;;;;;;5288346;28;20035;-74
2023/10/19 04:43:09;;;;;;;53.00;35.15;;;11.00;99.90;;;;;;5288780;28;20024;-75
2023/10/19 04:45:40;;;;;;;51.50;38.25;;;11.00;99.90;;;;;;5288639;28;20391;-74
2023/10/19 04:48:11;;;;;;;42.58;30.15;;;10.90;99.90;;;;;;5288560;28;20073;-80
2023/10/19 04:50:42;;;;;;;36.13;27.20;;;10.90;99.90;;;;;;5288672;28;20476;-74
2023/10/19 04:53:13;;;;;;;24.83;19.55;;;11.00;99.90;;;;;;5288690;28;20015;-74
2023/10/19 04:55:45;;;;;;;27.08;18.33;;;11.20;99.90;;;;;;5288733;28;20023;-75
2023/10/19 04:58:17;;;;;;;26.15;17.35;;;11.20;99.90;;;;;;5288545;28;20046;-74
2023/10/19 05:00:48;;;;;;;20.98;15.95;;;11.20;99.90;;;;;;5288515;28;20110;-74
2023/10/19 05:03:19;;;;;;;19.42;15.85;;;11.10;99.90;;;;;;5288301;28;20020;-74
2023/10/19 05:05:51;;;;;;;18.35;14.15;;;11.30;99.90;;;;;;5288250;28;20076;-75
2023/10/19 05:08:25;;;;;;;20.90;14.50;;;11.30;99.90;;;;;;5288647;28;20478;-75
2023/10/19 05:10:58;;;;;;;16.92;15.18;;;11.30;99.90;;;;;;5288409;28;20407;-75
2023/10/19 05:13:32;;;;;;;16.35;12.55;;;11.30;99.90;;;;;;5288377;28;20532;-79
2023/10/19 05:16:03;;;;;;;13.95;11.48;;;11.30;99.90;;;;;;5287921;28;20135;-78
2023/10/19 05:18:34;;;;;;;17.33;10.73;;;11.50;99.90;;;;;;5287746;28;20067;-76
2023/10/19 05:21:05;;;;;;;14.35;11.63;;;11.40;99.90;;;;;;5288166;28;20475;-74
2023/10/19 05:23:36;;;;;;;14.75;11.63;;;11.60;99.90;;;;;;5287234;28;20020;-75
2023/10/19 05:26:06;;;;;;;32.22;26.13;;;11.60;99.90;;;;;;5269319;28;20506;-74
2023/10/19 05:28:37;;;;;;;47.63;32.33;;;11.60;99.90;;;;;;5287208;28;20490;-76
2023/10/19 05:31:08;;;;;;;51.60;39.97;;;11.70;99.90;;;;;;5269000;28;20058;-76
2023/10/19 05:33:39;;;;;;;38.13;29.98;;;11.80;99.90;;;;;;5269031;28;20514;-77
2023/10/19 05:36:10;;;;;;;30.63;17.70;;;11.70;99.90;;;;;;5269215;28;20035;-75
2023/10/19 05:38:41;;;;;;;17.75;14.77;;;11.60;99.90;;;;;;5288256;28;20034;-74
2023/10/19 05:41:12;;;;;;;16.13;13.10;;;11.80;99.90;;;;;;5287803;28;20399;-74
2023/10/19 05:43:43;;;;;;;15.07;13.18;;;11.80;99.90;;;;;;5269666;28;20028;-75
2023/10/19 05:46:18;;;;;;;12.90;10.55;;;12.00;99.90;;;;;;5287975;28;20042;-74
2023/10/19 05:48:49;;;;;;;13.27;11.60;;;12.10;99.90;;;;;;5270888;28;20043;-74
2023/10/19 05:51:20;;;;;;;15.32;13.75;;;12.20;99.90;;;;;;5292373;28;20379;-74
2023/10/19 05:54:01;;;;;;;17.70;14.70;;;12.30;99.90;;;;;;5292155;28;20035;-74
2023/10/19 05:56:34;;;;;;;16.42;14.13;;;12.20;99.90;;;;;;5275794;28;20031;-74
2023/10/19 05:59:06;;;;;;;13.77;11.50;;;12.40;99.90;;;;;;5292003;28;20031;-74
2023/10/19 06:01:37;;;;;;;15.40;11.95;;;12.20;99.90;;;;;;5291946;28;20023;-74
2023/10/19 06:04:08;;;;;;;14.50;12.98;;;12.40;99.90;;;;;;5291938;28;20024;-74
2023/10/19 06:06:39;;;;;;;16.15;13.73;;;12.30;99.90;;;;;;5291753;28;20039;-74
2023/10/19 06:09:09;;;;;;;51.60;37.45;;;12.40;99.90;;;;;;5291721;28;20039;-79
2023/10/19 06:11:42;;;;;;;111.40;77.90;;;12.40;99.90;;;;;;5291889;28;20020;-74
2023/10/19 06:14:13;;;;;;;73.07;51.08;;;12.60;99.90;;;;;;5290890;28;20078;-74
2023/10/19 06:16:44;;;;;;;42.97;34.20;;;12.50;99.90;;;;;;5291334;28;20079;-74
2023/10/19 06:19:16;;;;;;;41.13;34.50;;;12.50;99.90;;;;;;5290421;28;20762;-75
2023/10/19 06:21:50;;;;;;;39.85;29.05;;;12.70;99.90;;;;;;5290511;28;20028;-74
2023/10/19 06:24:20;;;;;;;30.55;24.25;;;12.60;99.90;;;;;;5290171;28;20454;-74
2023/10/19 06:26:52;;;;;;;35.97;21.55;;;12.70;99.90;;;;;;5290190;28;20059;-74
2023/10/19 06:29:27;;;;;;;21.83;19.25;;;12.70;99.90;;;;;;5290601;28;20031;-74
2023/10/19 06:31:57;;;;;;;22.73;13.82;;;12.80;99.90;;;;;;5290371;28;20156;-74
2023/10/19 06:34:29;;;;;;;21.05;17.05;;;13.00;99.90;;;;;;5291184;28;20094;-74
2023/10/19 06:37:00;;;;;;;14.95;12.63;;;13.10;99.90;;;;;;5291197;28;20032;-75
2023/10/19 06:39:32;;;;;;;13.88;12.40;;;13.00;99.90;;;;;;5291186;28;20027;-80
2023/10/19 06:42:03;;;;;;;15.38;11.73;;;13.20;99.90;;;;;;5291106;28;20048;-74
2023/10/19 06:44:33;;;;;;;13.15;11.90;;;13.20;99.90;;;;;;5291094;28;20023;-74
2023/10/19 06:47:06;;;;;;;13.75;11.90;;;13.30;99.90;;;;;;5290655;28;20059;-75
2023/10/19 06:49:37;;;;;;;15.05;13.18;;;13.30;99.90;;;;;;5290946;28;20061;-75
2023/10/19 06:52:11;;;;;;;15.38;12.57;;;13.40;99.90;;;;;;5290978;28;20035;-78
2023/10/19 06:54:42;;;;;;;12.88;11.15;;;13.50;99.90;;;;;;5290761;28;20024;-75
2023/10/19 06:57:13;;;;;;;12.80;11.48;;;13.60;99.90;;;;;;5291064;28;20023;-77
2023/10/19 06:59:43;;;;;;;12.55;9.35;;;14.00;99.90;;;;;;5290489;28;20024;-75
2023/10/19 07:02:16;;;;;;;9.73;8.48;;;14.30;99.90;;;;;;5290700;28;20495;-75
2023/10/19 07:04:47;;;;;;;12.77;8.32;;;14.30;99.90;;;;;;5290729;28;20028;-75
2023/10/19 07:07:18;;;;;;;9.38;8.23;;;14.20;99.90;;;;;;5290578;28;20040;-75
2023/10/19 07:09:49;;;;;;;9.60;8.60;;;14.20;99.90;;;;;;5290164;28;20039;-77
2023/10/19 07:12:19;;;;;;;10.98;8.48;;;14.30;99.90;;;;;;5290689;28;20024;-79
2023/10/19 07:14:50;;;;;;;11.93;8.63;;;14.30;99.90;;;;;;5289193;28;20019;-78
2023/10/19 07:17:22;;;;;;;14.25;8.77;;;14.60;99.90;;;;;;5289105;28;20184;-81
2023/10/19 07:19:53;;;;;;;10.70;8.15;;;14.70;99.90;;;;;;5289267;28;20490;-76
2023/10/19 07:22:24;;;;;;;11.68;7.78;;;14.70;99.90;;;;;;5288985;28;20031;-77
2023/10/19 07:24:55;;;;;;;12.57;9.40;;;15.00;99.90;;;;;;5289187;28;20016;-74
2023/10/19 07:27:28;;;;;;;13.95;10.50;;;15.10;99.90;;;;;;5289230;28;20046;-75
2023/10/19 07:29:59;;;;;;;14.30;9.30;;;15.30;99.90;;;;;;5290356;28;20519;-78
2023/10/19 07:32:30;;;;;;;12.80;10.23;;;15.40;99.90;;;;;;5290505;28;20039;-80
2023/10/19 07:35:01;;;;;;;12.77;9.88;;;15.20;99.90;;;;;;5290905;28;20090;-75
2023/10/19 07:37:32;;;;;;;14.13;9.60;;;15.20;99.90;;;;;;5290983;28;20039;-77
2023/10/19 07:40:05;;;;;;;10.85;7.78;;;15.40;99.90;;;;;;5291251;28;20020;-75
2023/10/19 07:42:36;;;;;;;10.98;6.82;;;15.30;99.90;;;;;;5290777;28;20032;-78
2023/10/19 07:45:11;;;;;;;8.43;6.18;;;15.30;99.90;;;;;;5291210;28;20020;-75
2023/10/19 07:47:43;;;;;;;6.93;5.70;;;15.30;99.90;;;;;;5291005;28;20105;-75
2023/10/19 07:50:16;;;;;;;7.57;6.47;;;15.30;99.90;;;;;;5291067;28;20462;-78
2023/10/19 07:52:50;;;;;;;10.68;6.80;;;15.20;99.90;;;;;;5290996;28;20367;-75
2023/10/19 07:55:24;;;;;;;11.40;8.15;;;15.20;99.90;;;;;;5290608;28;20072;-76
2023/10/19 07:57:57;;;;;;;11.65;7.50;;;15.30;99.90;;;;;;5290680;28;20051;-76
2023/10/19 08:00:29;;;;;;;11.25;8.02;;;15.40;99.90;;;;;;5290781;28;20028;-78
2023/10/19 08:03:00;;;;;;;9.60;7.20;;;15.50;99.90;;;;;;5290498;28;20024;-76
2023/10/19 08:05:33;;;;;;;8.32;5.15;;;15.50;99.90;;;;;;5272189;28;20502;-76
2023/10/19 08:08:05;;;;;;;10.82;7.63;;;15.70;99.90;;;;;;5290210;28;20031;-76
2023/10/19 08:10:36;;;;;;;9.07;7.32;;;15.60;99.90;;;;;;5271815;28;20063;-77
2023/10/19 08:13:07;;;;;;;7.85;5.95;;;15.90;99.90;;;;;;5289196;28;20106;-77
2023/10/19 08:15:38;;;;;;;7.00;5.72;;;15.90;99.90;;;;;;5289442;28;20052;-77
2023/10/19 08:18:12;;;;;;;9.30;6.68;;;16.20;99.90;;;;;;5289522;28;20554;-76
2023/10/19 08:20:45;;;;;;;8.73;5.72;;;16.30;99.90;;;;;;5289653;28;20019;-77
2023/10/19 08:23:16;;;;;;;5.78;5.20;;;16.60;99.90;;;;;;5289730;28;20379;-76
2023/10/19 08:25:47;;;;;;;6.88;5.55;;;17.20;99.90;;;;;;5271924;28;20716;-76
2023/10/19 08:28:18;;;;;;;5.00;4.50;;;17.50;99.90;;;;;;5289994;28;20035;-76
2023/10/19 08:30:57;;;;;;;5.82;4.20;;;17.20;99.90;;;;;;5290356;28;20012;-75
2023/10/19 08:33:29;;;;;;;7.35;4.18;;;17.30;99.90;;;;;;5290208;28;20035;-77
2023/10/19 08:36:00;;;;;;;4.75;4.20;;;17.20;99.90;;;;;;5289700;28;20027;-76
2023/10/19 08:38:31;;;;;;;5.15;4.30;;;17.40;99.90;;;;;;5290018;28;20415;-76
2023/10/19 08:41:02;;;;;;;5.30;4.57;;;17.50;99.90;;;;;;5289722;28;20030;-75
2023/10/19 08:43:33;;;;;;;6.22;5.35;;;17.80;99.90;;;;;;5289800;28;20031;-78
2023/10/19 08:46:05;;;;;;;6.28;5.65;;;17.70;99.90;;;;;;5289723;28;20027;-75
2023/10/19 08:48:37;;;;;;;6.05;5.47;;;17.70;99.90;;;;;;5289777;28;20041;-76
2023/10/19 08:51:12;;;;;;;5.50;5.10;;;17.80;99.90;;;;;;5289799;28;20031;-76
2023/10/19 08:53:44;;;;;;;5.93;5.32;;;17.60;99.90;;;;;;5289772;28;20034;-78
2023/10/19 08:56:16;;;;;;;5.95;5.55;;;17.80;99.90;;;;;;5289591;28;20042;-75
2023/10/19 08:58:46;;;;;;;5.63;5.13;;;17.80;99.90;;;;;;5289447;28;20124;-76
2023/10/19 09:01:19;;;;;;;6.32;5.72;;;17.90;99.90;;;;;;5271165;28;20051;-76
2023/10/19 09:03:51;;;;;;;6.55;6.05;;;17.90;99.90;;;;;;5289493;28;20042;-76
2023/10/19 09:06:22;;;;;;;5.72;5.32;;;18.20;99.90;;;;;;5288698;28;20031;-75
2023/10/19 09:08:53;;;;;;;6.03;5.53;;;18.50;99.90;;;;;;5288956;28;20057;-75
2023/10/19 09:11:24;;;;;;;7.68;7.07;;;18.60;99.90;;;;;;5288726;28;20031;-76
2023/10/19 09:13:57;;;;;;;7.82;7.13;;;18.70;99.90;;;;;;5288548;28;20596;-76
2023/10/19 09:16:30;;;;;;;8.70;8.02;;;19.10;99.90;;;;;;5288401;28;20052;-76
2023/10/19 09:19:01;;;;;;;7.28;6.78;;;19.30;99.90;;;;;;5288999;28;20030;-76
2023/10/19 09:21:33;;;;;;;6.97;6.40;;;19.50;99.90;;;;;;5271223;28;20433;-77
2023/10/19 09:24:04;;;;;;;5.75;5.35;;;19.30;99.90;;;;;;5292622;28;20035;-76
2023/10/19 09:26:37;;;;;;;6.82;6.32;;;19.00;99.90;;;;;;5293787;28;20035;-77
2023/10/19 09:29:07;;;;;;;6.53;6.13;;;19.00;99.90;;;;;;5293911;28;20110;-76
2023/10/19 09:31:39;;;;;;;7.63;7.10;;;19.40;99.90;;;;;;5293890;28;20107;-76
2023/10/19 09:34:13;;;;;;;7.55;7.00;;;19.90;99.90;;;;;;5293853;28;20556;-78
2023/10/19 09:36:44;;;;;;;9.73;9.13;;;20.40;99.90;;;;;;5293344;28;20073;-77
2023/10/19 09:39:16;;;;;;;8.85;8.30;;;21.00;99.90;;;;;;5293562;28;20517;-76
2023/10/19 09:41:47;;;;;;;9.27;8.48;;;20.90;99.90;;;;;;5293787;28;20478;-76
2023/10/19 09:44:24;;;;;;;8.35;7.75;;;21.10;99.90;;;;;;5293320;28;20062;-76
2023/10/19 09:47:00;;;;;;;10.00;9.10;;;21.10;99.90;;;;;;5293338;28;20054;-78
2023/10/19 09:49:30;;;;;;;8.63;8.02;;;20.80;99.90;;;;;;5293288;28;20024;-77
2023/10/19 09:52:04;;;;;;;8.65;8.07;;;20.70;99.90;;;;;;5293506;28;20077;-77
2023/10/19 09:54:50;;;;;;;8.40;7.80;;;21.20;99.90;;;;;;5293296;28;20019;-78
2023/10/19 09:57:47;;;;;;;7.20;6.65;;;21.00;99.90;;;;;;5293038;28;20455;-77
2023/10/19 10:00:23;;;;;;;6.95;6.43;;;20.60;99.90;;;;;;5292858;28;20020;-78
2023/10/19 10:02:55;;;;;;;6.30;5.80;;;20.40;99.90;;;;;;5292352;28;20102;-76
2023/10/19 10:05:41;;;;;;;6.80;5.72;;;20.30;99.90;;;;;;5274542;28;20047;-78
2023/10/19 10:08:18;;;;;;;5.63;5.25;;;20.20;99.90;;;;;;5292306;28;20042;-77
2023/10/19 10:10:53;;;;;;;7.15;6.55;;;20.10;99.90;;;;;;5292173;28;20480;-76
2023/10/19 10:13:24;;;;;;;7.57;6.70;;;20.20;99.90;;;;;;5273903;28;20391;-77
2023/10/19 10:16:00;;;;;;;8.25;7.68;;;20.30;99.90;;;;;;5291958;28;20020;-76
2023/10/19 10:18:32;;;;;;;8.00;7.18;;;20.20;99.90;;;;;;5292882;28;20032;-76
2023/10/19 10:21:24;;;;;;;6.95;6.35;;;20.40;99.90;;;;;;5292775;28;20048;-75
2023/10/19 10:24:00;;;;;;;8.88;8.10;;;21.20;99.90;;;;;;5293118;28;20478;-76
2023/10/19 10:26:51;;;;;;;10.10;9.40;;;20.70;99.90;;;;;;5292475;28;20053;-76
2023/10/19 10:29:26;;;;;;;9.77;9.18;;;21.20;99.90;;;;;;5292746;28;20028;-77
2023/10/19 10:31:58;;;;;;;10.45;9.55;;;21.00;99.90;;;;;;5292673;28;20019;-77
2023/10/19 10:34:38;;;;;;;9.50;8.80;;;21.20;99.90;;;;;;5292043;28;20026;-76
2023/10/19 10:37:10;;;;;;;;;;;21.60;99.90;;;;;;5292849;28;20020;-76
2023/10/19 10:39:44;;;;;;;9.57;8.77;;;21.60;99.90;;;;;;5292440;28;19904;-78
2023/10/19 10:42:17;;;;;;;9.85;9.15;;;21.60;99.90;;;;;;5292443;28;20035;-78
2023/10/19 10:44:52;;;;;;;9.52;8.93;;;21.90;99.90;;;;;;5292554;28;20387;-77
2023/10/19 10:47:29;;;;;;;8.75;8.15;;;21.70;99.90;;;;;;5292170;28;20039;-76
2023/10/19 10:50:01;;;;;;;7.78;7.18;;;21.20;99.90;;;;;;5292368;28;20386;-77
2023/10/19 10:52:33;;;;;;;7.00;6.30;;;20.80;99.90;;;;;;5292303;28;20032;-77
2023/10/19 10:55:12;;;;;;;5.75;5.25;;;20.70;99.90;;;;;;5291826;28;20168;-77
2023/10/19 10:57:44;;;;;;;7.57;6.97;;;20.60;99.90;;;;;;5291611;28;20069;-76
2023/10/19 11:00:15;;;;;;;7.45;6.75;;;20.90;99.90;;;;;;5291257;28;20471;-77
2023/10/19 11:02:58;;;;;;;7.32;6.63;;;21.50;99.90;;;;;;5291346;28;20019;-77
2023/10/19 11:05:29;;;;;;;6.43;5.93;;;21.50;99.90;;;;;;5291456;28;20034;-76
2023/10/19 11:08:13;;;;;;;5.85;5.20;;;22.10;99.90;;;;;;5290969;28;20471;-76
2023/10/19 11:10:48;;;;;;;6.10;4.68;;;21.60;99.90;;;;;;5291275;28;20036;-76
2023/10/19 11:13:24;;;;;;;5.32;4.82;;;21.30;99.90;;;;;;5291487;28;20020;-77
2023/10/19 11:15:58;;;;;;;5.50;5.07;;;21.00;99.90;;;;;;5291320;28;20032;-77
2023/10/19 11:18:36;;;;;;;5.43;4.75;;;20.90;99.90;;;;;;5291737;28;20058;-76
2023/10/19 11:21:09;;;;;;;5.22;4.75;;;21.40;99.90;;;;;;5291805;28;20019;-77
2023/10/19 11:23:49;;;;;;;5.63;5.07;;;21.70;99.90;;;;;;5291778;28;20421;-77
2023/10/19 11:26:22;;;;;;;5.13;4.78;;;22.20;99.90;;;;;;5291431;28;20023;-76
2023/10/19 11:29:09;;;;;;;5.53;5.20;;;22.40;99.90;;;;;;5291253;28;20081;-77
2023/10/19 11:31:41;;;;;;;5.95;5.30;;;22.70;99.90;;;;;;5291352;28;20031;-77
2023/10/19 11:34:18;;;;;;;5.68;4.65;;;22.30;99.90;;;;;;5291258;28;20104;-77
2023/10/19 11:36:56;;;;;;;4.43;4.05;;;22.90;99.90;;;;;;5291299;28;20015;-78
2023/10/19 11:39:28;;;;;;;4.57;4.30;;;22.80;99.90;;;;;;5290831;28;20063;-77
2023/10/19 11:41:59;;;;;;;5.18;4.68;;;22.90;99.90;;;;;;5291095;28;20031;-77
2023/10/19 11:44:30;;;;;;;6.50;5.93;;;23.00;99.90;;;;;;5291026;28;20459;-76
2023/10/19 11:47:01;;;;;;;7.40;6.72;;;22.20;99.90;;;;;;5289657;28;20050;-76
2023/10/19 11:49:32;;;;;;;6.18;5.68;;;22.60;99.90;;;;;;5290057;28;20483;-78
2023/10/19 11:52:07;;;;;;;7.60;6.13;;;22.30;99.90;;;;;;5289428;28;20095;-77
2023/10/19 11:54:38;;;;;;;6.90;6.20;;;21.90;99.90;;;;;;5288897;28;20028;-77
2023/10/19 11:57:09;;;;;;;7.78;7.18;;;21.50;99.90;;;;;;5288370;28;20022;-77
2023/10/19 11:59:40;;;;;;;8.93;8.13;;;21.70;99.90;;;;;;5288508;28;20023;-77
2023/10/19 12:02:11;;;;;;;10.80;10.10;;;21.70;99.90;;;;;;5287645;28;20032;-77
2023/10/19 12:04:42;;;;;;;10.85;7.57;;;21.60;99.90;;;;;;5287817;28;20110;-77
2023/10/19 12:07:13;;;;;;;6.63;6.13;;;22.00;99.90;;;;;;5288055;28;20118;-76
2023/10/19 12:09:45;;;;;;;8.13;7.40;;;21.90;99.90;;;;;;5289953;28;20075;-76
2023/10/19 12:12:15;;;;;;;6.95;6.35;;;22.10;99.90;;;;;;5289950;28;20027;-78
2023/10/19 12:14:46;;;;;;;8.15;7.63;;;22.70;99.90;;;;;;5289935;28;20470;-78
2023/10/19 12:17:17;;;;;;;7.68;7.05;;;22.80;99.90;;;;;;5289803;28;20391;-77
2023/10/19 12:19:48;;;;;;;7.18;6.57;;;23.00;99.90;;;;;;5290417;28;20532;-76
2023/10/19 12:22:19;;;;;;;8.35;6.30;;;22.90;99.90;;;;;;5289879;28;20019;-75
2023/10/19 12:24:51;;;;;;;6.45;5.80;;;22.40;99.90;;;;;;5290051;28;20028;-77
2023/10/19 12:27:24;;;;;;;6.93;5.30;;;22.30;99.90;;;;;;5289972;28;20379;-78
2023/10/19 12:29:55;;;;;;;11.75;6.75;;;22.30;99.90;;;;;;5289860;28;20027;-76
2023/10/19 12:32:26;;;;;;;7.75;6.97;;;22.50;99.90;;;;;;5271576;28;20378;-77
2023/10/19 12:34:57;;;;;;;8.52;5.13;;;22.50;99.90;;;;;;5289899;28;20424;-76
2023/10/19 12:37:28;;;;;;;7.03;5.18;;;22.80;99.90;;;;;;5289550;28;20149;-76
2023/10/19 12:39:59;;;;;;;9.73;6.97;;;23.20;99.90;;;;;;5290126;28;20103;-77
2023/10/19 12:42:30;;;;;;;10.07;6.10;;;22.60;99.90;;;;;;5289743;28;20035;-75
2023/10/19 12:45:01;;;;;;;8.25;5.65;;;22.80;99.90;;;;;;5289551;28;20028;-75
2023/10/19 12:47:32;;;;;;;8.90;6.28;;;23.00;99.90;;;;;;5289053;28;20131;-78
2023/10/19 12:50:03;;;;;;;8.85;5.93;;;22.90;99.90;;;;;;5288725;28;20046;-78
2023/10/19 12:52:37;;;;;;;9.35;7.07;;;22.90;99.90;;;;;;5289002;28;20626;-77
2023/10/19 12:55:08;;;;;;;8.18;7.25;;;22.30;99.90;;;;;;5288501;28;20055;-76
2023/10/19 12:57:39;;;;;;;9.55;6.60;;;22.40;99.90;;;;;;5288253;28;20539;-76
2023/10/19 13:00:26;;;;;;;11.32;7.13;;;21.90;99.90;;;;;;5288774;28;20118;-77
2023/10/19 13:03:04;;;;;;;10.27;7.80;;;21.60;99.90;;;;;;5288711;28;20041;-77
2023/10/19 13:05:39;;;;;;;10.32;5.60;;;21.50;99.90;;;;;;5289506;28;20023;-78
2023/10/19 13:08:14;;;;;;;8.02;6.13;;;21.50;99.90;;;;;;5289869;28;20101;-77
2023/10/19 13:10:46;;;;;;;11.13;6.93;;;21.50;99.90;;;;;;5289501;28;20027;-78
2023/10/19 13:13:17;;;;;;;9.05;7.50;;;21.80;99.90;;;;;;5289492;28;20104;-77
2023/10/19 13:15:48;;;;;;;8.07;6.18;;;22.10;99.90;;;;;;5270705;28;20035;-75
2023/10/19 13:18:25;;;;;;;8.27;6.68;;;22.00;99.90;;;;;;5289289;28;20055;-77
2023/10/19 13:20:56;;;;;;;8.02;7.22;;;21.80;99.90;;;;;;5289106;28;20034;-77
2023/10/19 13:23:28;;;;;;;7.43;6.50;;;21.70;99.90;;;;;;5289487;28;20479;-77
2023/10/19 13:28:46;;;;;;;10.88;8.05;;;21.20;99.90;;;;;;5289359;28;20031;-78
2023/10/19 13:31:19;;;;;;;8.90;5.82;;;21.00;99.90;;;;;;5289393;28;20031;-76
2023/10/19 13:33:50;;;;;;;11.35;8.73;;;21.30;99.90;;;;;;5289220;28;20088;-77
2023/10/19 13:36:20;;;;;;;10.85;9.20;;;21.20;99.90;;;;;;5289113;28;20032;-77
2023/10/19 13:38:51;;;;;;;12.25;7.47;;;21.00;99.90;;;;;;5289166;28;20023;-78
2023/10/19 13:41:22;;;;;;;8.90;7.35;;;20.90;99.90;;;;;;5288890;28;20095;-77
2023/10/19 13:43:53;;;;;;;11.00;6.25;;;20.80;99.90;;;;;;5288350;28;20020;-77